createdAt,value
2022-10-07T05:12:09.053Z,2.85
2022-10-07T05:23:25.657Z,2.82
2022-10-07T05:34:31.158Z,2.83
2022-10-07T05:45:41.834Z,2.85
2022-10-07T05:56:49.762Z,2.87
2022-10-07T06:07:53.211Z,2.90
2022-10-07T06:19:09.717Z,2.90
2022-10-07T06:30:17.162Z,2.89
2022-10-07T06:41:30.889Z,2.89
2022-10-07T06:52:43.335Z,2.89
2022-10-07T07:03:57.419Z,2.90
2022-10-07T07:14:56.234Z,2.90
2022-10-07T07:25:47.807Z,2.90
2022-10-07T07:37:02.839Z,2.91
2022-10-07T07:47:50.955Z,2.91
2022-10-07T07:59:01.183Z,2.92
2022-10-07T08:10:03.603Z,2.94
2022-10-07T08:21:08.382Z,2.94
2022-10-07T08:32:06.342Z,2.96
2022-10-07T08:43:08.948Z,2.97
2022-10-07T08:54:10.689Z,2.99
2022-10-07T09:05:10.223Z,3.00
2022-10-07T09:16:13.296Z,3.01
2022-10-07T09:27:15.449Z,3.04
2022-10-07T09:38:17.754Z,3.04
2022-10-07T09:49:24.334Z,3.06
2022-10-07T10:00:27.040Z,3.07
2022-10-07T10:11:28.871Z,3.09
2022-10-07T10:22:31.510Z,3.10
2022-10-07T10:33:34.855Z,3.12
2022-10-07T10:44:44.311Z,3.20
2022-10-07T10:55:41.508Z,3.23
2022-10-07T11:06:42.774Z,3.21
2022-10-07T11:17:43.049Z,3.41
2022-10-07T11:28:45.978Z,3.40
2022-10-07T11:39:41.439Z,3.40
2022-10-07T11:50:14.403Z,3.40
2022-10-07T12:00:51.774Z,3.41
2022-10-07T12:11:25.818Z,3.40
2022-10-07T12:22:04.261Z,3.40
2022-10-07T12:33:05.177Z,3.30
2022-10-07T12:44:04.766Z,3.33
2022-10-07T12:54:39.203Z,3.41
2022-10-07T13:05:39.353Z,3.43
2022-10-07T13:16:35.189Z,3.33
2022-10-07T13:27:13.115Z,3.43
2022-10-07T13:38:14.934Z,3.36
2022-10-07T13:49:14.307Z,3.32
2022-10-07T14:00:09.307Z,3.34
2022-10-07T14:11:07.668Z,3.36
2022-10-07T14:22:06.912Z,3.36
2022-10-07T14:33:02.300Z,3.36
2022-10-07T14:43:58.250Z,3.35
2022-10-07T14:54:57.550Z,3.33
2022-10-07T15:05:54.161Z,3.33
2022-10-07T15:16:54.219Z,3.33
2022-10-07T15:27:52.062Z,3.34
2022-10-07T15:38:47.233Z,3.33
2022-10-07T15:49:47.363Z,3.31
2022-10-07T16:00:47.762Z,3.29
2022-10-07T16:11:23.071Z,3.27
2022-10-07T16:22:22.994Z,3.26
2022-10-07T16:33:05.673Z,3.25
2022-10-07T16:44:05.844Z,3.24
2022-10-07T16:55:06.354Z,3.23
2022-10-07T17:06:03.102Z,3.23
2022-10-07T17:16:57.790Z,3.22
2022-10-07T17:27:53.980Z,3.22
2022-10-07T17:38:53.295Z,3.21
2022-10-07T17:49:53.661Z,3.21
2022-10-07T18:00:53.866Z,3.20
2022-10-07T18:11:52.126Z,3.19
2022-10-07T18:22:42.263Z,3.19
2022-10-07T18:33:38.723Z,3.19
2022-10-07T18:44:35.198Z,3.18
2022-10-07T18:55:32.615Z,3.18
2022-10-07T19:06:29.885Z,3.17
2022-10-07T19:17:23.947Z,3.17
2022-10-07T19:28:21.562Z,3.16
2022-10-07T19:39:16.256Z,3.15
2022-10-07T19:50:10.816Z,3.15
2022-10-07T20:01:11.799Z,3.15
2022-10-07T20:12:06.604Z,3.15
2022-10-07T20:23:04.685Z,3.14
2022-10-07T20:34:00.864Z,3.14
2022-10-07T20:44:53.539Z,3.13
2022-10-07T20:55:48.250Z,3.12
2022-10-07T21:06:46.886Z,3.12
2022-10-07T21:17:34.069Z,3.11
2022-10-07T21:28:12.773Z,3.10
2022-10-07T21:39:06.408Z,3.10
2022-10-07T21:50:01.946Z,3.09
2022-10-07T22:00:57.076Z,3.09
2022-10-07T22:11:34.102Z,3.07
2022-10-07T22:22:30.731Z,3.07
2022-10-07T22:33:20.766Z,3.07
2022-10-07T22:44:14.831Z,3.06
2022-10-07T22:54:51.324Z,3.05
2022-10-07T23:05:35.075Z,3.05
2022-10-07T23:16:12.982Z,3.04
2022-10-07T23:27:09.945Z,3.04
2022-10-07T23:38:05.058Z,3.04
2022-10-07T23:49:04.128Z,3.04
2022-10-07T23:59:56.419Z,3.03
